sensor_id;sensor_type;location;lat;lon;timestamp;P1;durP1;ratioP1;P2;durP2;ratioP2
43710;SDS011;29309;42.682;23.372;2023-01-15T00:00:51;25.48;;;10.80;;
43710;SDS011;29309;42.682;23.372;2023-01-15T00:03:17;26.20;;;11.63;;
43710;SDS011;29309;42.682;23.372;2023-01-15T00:05:42;20.05;;;10.48;;
43710;SDS011;29309;42.682;23.372;2023-01-15T00:08:08;22.80;;;11.13;;
43710;SDS011;29309;42.682;23.372;2023-01-15T00:10:34;24.75;;;10.52;;
43710;SDS011;29309;42.682;23.372;2023-01-15T00:13:00;29.63;;;10.70;;
43710;SDS011;29309;42.682;23.372;2023-01-15T00:15:25;23.77;;;11.55;;
43710;SDS011;29309;42.682;23.372;2023-01-15T00:17:51;23.70;;;11.52;;
43710;SDS011;29309;42.682;23.372;2023-01-15T00:20:17;19.48;;;10.73;;
43710;SDS011;29309;42.682;23.372;2023-01-15T00:22:42;24.50;;;12.38;;
43710;SDS011;29309;42.682;23.372;2023-01-15T00:25:08;23.33;;;10.68;;
43710;SDS011;29309;42.682;23.372;2023-01-15T00:27:52;20.60;;;10.30;;
43710;SDS011;29309;42.682;23.372;2023-01-15T00:30:18;20.38;;;10.95;;
43710;SDS011;29309;42.682;23.372;2023-01-15T00:32:43;20.92;;;10.98;;
43710;SDS011;29309;42.682;23.372;2023-01-15T00:35:11;24.55;;;10.65;;
43710;SDS011;29309;42.682;23.372;2023-01-15T00:37:38;23.35;;;11.00;;
43710;SDS011;29309;42.682;23.372;2023-01-15T00:40:03;21.70;;;10.68;;
43710;SDS011;29309;42.682;23.372;2023-01-15T00:42:29;24.45;;;11.27;;
43710;SDS011;29309;42.682;23.372;2023-01-15T00:44:54;22.95;;;10.20;;
43710;SDS011;29309;42.682;23.372;2023-01-15T00:47:20;17.77;;;9.63;;
43710;SDS011;29309;42.682;23.372;2023-01-15T00:49:45;20.65;;;10.30;;
43710;SDS011;29309;42.682;23.372;2023-01-15T00:52:11;23.98;;;10.48;;
43710;SDS011;29309;42.682;23.372;2023-01-15T00:54:37;20.35;;;10.68;;
43710;SDS011;29309;42.682;23.372;2023-01-15T00:57:02;21.30;;;10.68;;
43710;SDS011;29309;42.682;23.372;2023-01-15T00:59:28;24.02;;;10.93;;
43710;SDS011;29309;42.682;23.372;2023-01-15T01:01:53;24.33;;;10.48;;
43710;SDS011;29309;42.682;23.372;2023-01-15T01:04:19;22.45;;;10.85;;
43710;SDS011;29309;42.682;23.372;2023-01-15T01:06:44;20.73;;;10.88;;
43710;SDS011;29309;42.682;23.372;2023-01-15T01:09:13;27.25;;;10.35;;
43710;SDS011;29309;42.682;23.372;2023-01-15T01:11:39;22.60;;;11.55;;
43710;SDS011;29309;42.682;23.372;2023-01-15T01:14:04;20.63;;;11.27;;
43710;SDS011;29309;42.682;23.372;2023-01-15T01:19:10;18.35;;;9.68;;
43710;SDS011;29309;42.682;23.372;2023-01-15T01:21:37;21.38;;;9.95;;
43710;SDS011;29309;42.682;23.372;2023-01-15T01:24:04;18.85;;;10.25;;
43710;SDS011;29309;42.682;23.372;2023-01-15T01:26:32;19.05;;;9.88;;
43710;SDS011;29309;42.682;23.372;2023-01-15T01:28:57;20.67;;;9.98;;
43710;SDS011;29309;42.682;23.372;2023-01-15T01:31:23;20.45;;;10.20;;
43710;SDS011;29309;42.682;23.372;2023-01-15T01:33:50;20.88;;;10.02;;
43710;SDS011;29309;42.682;23.372;2023-01-15T01:36:17;22.02;;;10.63;;
43710;SDS011;29309;42.682;23.372;2023-01-15T01:38:47;17.33;;;9.10;;
43710;SDS011;29309;42.682;23.372;2023-01-15T01:41:14;18.98;;;10.10;;
43710;SDS011;29309;42.682;23.372;2023-01-15T01:46:29;21.33;;;10.10;;
43710;SDS011;29309;42.682;23.372;2023-01-15T01:49:16;19.55;;;9.50;;
43710;SDS011;29309;42.682;23.372;2023-01-15T01:51:46;18.93;;;9.83;;
43710;SDS011;29309;42.682;23.372;2023-01-15T01:54:15;20.60;;;9.20;;
43710;SDS011;29309;42.682;23.372;2023-01-15T01:56:45;16.58;;;9.23;;
43710;SDS011;29309;42.682;23.372;2023-01-15T01:59:13;16.65;;;8.98;;
43710;SDS011;29309;42.682;23.372;2023-01-15T02:01:40;17.48;;;8.95;;
43710;SDS011;29309;42.682;23.372;2023-01-15T02:04:06;18.98;;;10.18;;
43710;SDS011;29309;42.682;23.372;2023-01-15T02:06:33;17.58;;;8.90;;
43710;SDS011;29309;42.682;23.372;2023-01-15T02:09:00;18.23;;;8.70;;
43710;SDS011;29309;42.682;23.372;2023-01-15T02:11:25;16.13;;;9.05;;
43710;SDS011;29309;42.682;23.372;2023-01-15T02:22:09;19.42;;;8.27;;
43710;SDS011;29309;42.682;23.372;2023-01-15T02:27:54;17.73;;;8.30;;
43710;SDS011;29309;42.682;23.372;2023-01-15T02:33:09;17.27;;;9.25;;
43710;SDS011;29309;42.682;23.372;2023-01-15T02:35:39;16.40;;;9.05;;
43710;SDS011;29309;42.682;23.372;2023-01-15T02:38:10;16.90;;;8.80;;
43710;SDS011;29309;42.682;23.372;2023-01-15T02:40:41;16.15;;;8.05;;
43710;SDS011;29309;42.682;23.372;2023-01-15T02:43:07;17.15;;;7.60;;
43710;SDS011;29309;42.682;23.372;2023-01-15T02:45:35;14.63;;;7.72;;
43710;SDS011;29309;42.682;23.372;2023-01-15T02:48:07;14.13;;;8.02;;
43710;SDS011;29309;42.682;23.372;2023-01-15T02:50:37;18.15;;;8.20;;
43710;SDS011;29309;42.682;23.372;2023-01-15T02:53:07;15.95;;;7.50;;
43710;SDS011;29309;42.682;23.372;2023-01-15T02:55:38;18.48;;;8.05;;
43710;SDS011;29309;42.682;23.372;2023-01-15T02:58:09;16.58;;;7.30;;
43710;SDS011;29309;42.682;23.372;2023-01-15T03:00:39;14.00;;;7.43;;
43710;SDS011;29309;42.682;23.372;2023-01-15T03:03:22;12.98;;;7.30;;
43710;SDS011;29309;42.682;23.372;2023-01-15T03:06:11;18.48;;;8.65;;
43710;SDS011;29309;42.682;23.372;2023-01-15T03:08:42;15.65;;;7.72;;
43710;SDS011;29309;42.682;23.372;2023-01-15T03:11:09;14.70;;;7.13;;
43710;SDS011;29309;42.682;23.372;2023-01-15T03:24:07;15.85;;;6.50;;
43710;SDS011;29309;42.682;23.372;2023-01-15T03:26:36;13.32;;;6.95;;
43710;SDS011;29309;42.682;23.372;2023-01-15T03:29:02;14.48;;;7.07;;
43710;SDS011;29309;42.682;23.372;2023-01-15T03:31:30;15.93;;;8.02;;
43710;SDS011;29309;42.682;23.372;2023-01-15T03:33:57;14.20;;;7.10;;
43710;SDS011;29309;42.682;23.372;2023-01-15T03:36:22;13.88;;;6.75;;
43710;SDS011;29309;42.682;23.372;2023-01-15T03:38:48;11.68;;;6.72;;
43710;SDS011;29309;42.682;23.372;2023-01-15T03:41:18;15.57;;;7.57;;
43710;SDS011;29309;42.682;23.372;2023-01-15T03:43:57;14.65;;;6.35;;
43710;SDS011;29309;42.682;23.372;2023-01-15T03:52:19;14.35;;;6.63;;
43710;SDS011;29309;42.682;23.372;2023-01-15T03:54:52;15.80;;;7.20;;
43710;SDS011;29309;42.682;23.372;2023-01-15T03:57:38;13.00;;;7.15;;
43710;SDS011;29309;42.682;23.372;2023-01-15T04:02:49;15.38;;;7.70;;
43710;SDS011;29309;42.682;23.372;2023-01-15T04:05:17;17.30;;;8.90;;
43710;SDS011;29309;42.682;23.372;2023-01-15T04:07:44;14.27;;;7.63;;
43710;SDS011;29309;42.682;23.372;2023-01-15T04:10:11;19.02;;;9.27;;
43710;SDS011;29309;42.682;23.372;2023-01-15T04:12:36;15.70;;;7.82;;
43710;SDS011;29309;42.682;23.372;2023-01-15T04:15:02;13.85;;;7.30;;
43710;SDS011;29309;42.682;23.372;2023-01-15T04:17:27;16.27;;;7.53;;
43710;SDS011;29309;42.682;23.372;2023-01-15T04:19:53;17.17;;;8.95;;
43710;SDS011;29309;42.682;23.372;2023-01-15T04:22:18;15.57;;;8.50;;
43710;SDS011;29309;42.682;23.372;2023-01-15T04:24:44;21.92;;;9.30;;
43710;SDS011;29309;42.682;23.372;2023-01-15T04:27:09;20.95;;;8.75;;
43710;SDS011;29309;42.682;23.372;2023-01-15T04:29:35;20.88;;;9.20;;
43710;SDS011;29309;42.682;23.372;2023-01-15T04:32:00;17.63;;;9.48;;
43710;SDS011;29309;42.682;23.372;2023-01-15T04:34:26;21.48;;;9.65;;
43710;SDS011;29309;42.682;23.372;2023-01-15T04:36:53;17.50;;;9.50;;
43710;SDS011;29309;42.682;23.372;2023-01-15T04:39:19;15.93;;;9.00;;
43710;SDS011;29309;42.682;23.372;2023-01-15T04:41:45;20.30;;;9.90;;
43710;SDS011;29309;42.682;23.372;2023-01-15T04:44:29;16.52;;;8.85;;
43710;SDS011;29309;42.682;23.372;2023-01-15T04:46:56;20.70;;;9.18;;
43710;SDS011;29309;42.682;23.372;2023-01-15T04:49:23;17.63;;;8.32;;
43710;SDS011;29309;42.682;23.372;2023-01-15T04:51:49;16.67;;;8.23;;
43710;SDS011;29309;42.682;23.372;2023-01-15T04:54:15;18.48;;;8.27;;
43710;SDS011;29309;42.682;23.372;2023-01-15T04:56:43;15.43;;;8.30;;
43710;SDS011;29309;42.682;23.372;2023-01-15T04:59:09;21.42;;;9.20;;
43710;SDS011;29309;42.682;23.372;2023-01-15T05:01:35;17.75;;;7.93;;
43710;SDS011;29309;42.682;23.372;2023-01-15T05:04:01;15.32;;;7.85;;
43710;SDS011;29309;42.682;23.372;2023-01-15T05:06:28;15.65;;;7.95;;
43710;SDS011;29309;42.682;23.372;2023-01-15T05:08:55;17.95;;;8.95;;
43710;SDS011;29309;42.682;23.372;2023-01-15T05:11:21;20.15;;;9.18;;
43710;SDS011;29309;42.682;23.372;2023-01-15T05:13:46;15.68;;;8.10;;
43710;SDS011;29309;42.682;23.372;2023-01-15T05:16:17;17.83;;;8.73;;
43710;SDS011;29309;42.682;23.372;2023-01-15T05:18:44;17.50;;;8.10;;
43710;SDS011;29309;42.682;23.372;2023-01-15T05:23:44;17.33;;;8.10;;
43710;SDS011;29309;42.682;23.372;2023-01-15T05:26:10;17.90;;;7.55;;
43710;SDS011;29309;42.682;23.372;2023-01-15T05:28:36;13.45;;;6.80;;
43710;SDS011;29309;42.682;23.372;2023-01-15T05:31:05;17.65;;;8.40;;
43710;SDS011;29309;42.682;23.372;2023-01-15T05:33:32;16.20;;;8.70;;
43710;SDS011;29309;42.682;23.372;2023-01-15T05:36:05;16.88;;;8.82;;
43710;SDS011;29309;42.682;23.372;2023-01-15T05:38:33;13.27;;;7.80;;
43710;SDS011;29309;42.682;23.372;2023-01-15T05:41:01;19.27;;;8.85;;
43710;SDS011;29309;42.682;23.372;2023-01-15T05:43:48;14.98;;;7.28;;
43710;SDS011;29309;42.682;23.372;2023-01-15T05:46:13;16.90;;;7.47;;
43710;SDS011;29309;42.682;23.372;2023-01-15T05:48:39;14.63;;;7.13;;
43710;SDS011;29309;42.682;23.372;2023-01-15T05:51:04;21.67;;;7.70;;
43710;SDS011;29309;42.682;23.372;2023-01-15T05:53:30;14.75;;;7.88;;
43710;SDS011;29309;42.682;23.372;2023-01-15T05:55:59;18.48;;;7.63;;
43710;SDS011;29309;42.682;23.372;2023-01-15T05:58:25;13.25;;;6.22;;
43710;SDS011;29309;42.682;23.372;2023-01-15T06:00:51;14.20;;;7.07;;
43710;SDS011;29309;42.682;23.372;2023-01-15T06:03:16;16.15;;;6.63;;
43710;SDS011;29309;42.682;23.372;2023-01-15T06:05:41;14.20;;;6.63;;
43710;SDS011;29309;42.682;23.372;2023-01-15T06:08:07;17.05;;;6.43;;
43710;SDS011;29309;42.682;23.372;2023-01-15T06:10:32;10.65;;;5.82;;
43710;SDS011;29309;42.682;23.372;2023-01-15T06:12:58;11.30;;;6.20;;
43710;SDS011;29309;42.682;23.372;2023-01-15T06:15:23;12.23;;;5.40;;
43710;SDS011;29309;42.682;23.372;2023-01-15T06:17:49;14.02;;;6.38;;
43710;SDS011;29309;42.682;23.372;2023-01-15T06:20:15;10.38;;;5.30;;
43710;SDS011;29309;42.682;23.372;2023-01-15T06:22:40;10.98;;;5.97;;
43710;SDS011;29309;42.682;23.372;2023-01-15T06:25:06;11.55;;;5.60;;
43710;SDS011;29309;42.682;23.372;2023-01-15T06:27:32;9.88;;;4.70;;
43710;SDS011;29309;42.682;23.372;2023-01-15T06:29:57;10.40;;;6.05;;
43710;SDS011;29309;42.682;23.372;2023-01-15T06:32:23;9.35;;;5.65;;
43710;SDS011;29309;42.682;23.372;2023-01-15T06:34:49;13.38;;;5.38;;
43710;SDS011;29309;42.682;23.372;2023-01-15T06:37:14;12.02;;;6.07;;
43710;SDS011;29309;42.682;23.372;2023-01-15T06:39:40;10.90;;;5.35;;
43710;SDS011;29309;42.682;23.372;2023-01-15T06:42:05;10.82;;;5.65;;
43710;SDS011;29309;42.682;23.372;2023-01-15T06:44:49;12.70;;;6.47;;
43710;SDS011;29309;42.682;23.372;2023-01-15T06:47:33;16.48;;;7.50;;
43710;SDS011;29309;42.682;23.372;2023-01-15T06:49:59;29.20;;;11.45;;
43710;SDS011;29309;42.682;23.372;2023-01-15T06:52:25;31.10;;;13.75;;
43710;SDS011;29309;42.682;23.372;2023-01-15T06:54:52;31.02;;;16.00;;
43710;SDS011;29309;42.682;23.372;2023-01-15T06:57:18;41.17;;;18.92;;
43710;SDS011;29309;42.682;23.372;2023-01-15T06:59:44;40.97;;;18.52;;
43710;SDS011;29309;42.682;23.372;2023-01-15T07:02:10;36.88;;;17.55;;
43710;SDS011;29309;42.682;23.372;2023-01-15T07:04:36;33.00;;;14.65;;
43710;SDS011;29309;42.682;23.372;2023-01-15T07:07:05;29.58;;;13.60;;
43710;SDS011;29309;42.682;23.372;2023-01-15T07:09:30;24.50;;;12.75;;
43710;SDS011;29309;42.682;23.372;2023-01-15T07:11:56;24.15;;;13.10;;
43710;SDS011;29309;42.682;23.372;2023-01-15T07:14:23;35.05;;;14.65;;
43710;SDS011;29309;42.682;23.372;2023-01-15T07:16:50;30.25;;;14.07;;
43710;SDS011;29309;42.682;23.372;2023-01-15T07:19:16;33.78;;;14.23;;
43710;SDS011;29309;42.682;23.372;2023-01-15T07:21:45;30.52;;;14.10;;
43710;SDS011;29309;42.682;23.372;2023-01-15T07:24:11;32.33;;;15.43;;
43710;SDS011;29309;42.682;23.372;2023-01-15T07:26:37;33.17;;;16.27;;
43710;SDS011;29309;42.682;23.372;2023-01-15T07:29:03;28.42;;;14.05;;
43710;SDS011;29309;42.682;23.372;2023-01-15T07:31:29;33.42;;;15.40;;
43710;SDS011;29309;42.682;23.372;2023-01-15T07:33:55;30.15;;;14.55;;
43710;SDS011;29309;42.682;23.372;2023-01-15T07:36:21;29.98;;;14.27;;
43710;SDS011;29309;42.682;23.372;2023-01-15T07:38:47;31.33;;;16.13;;
43710;SDS011;29309;42.682;23.372;2023-01-15T07:41:12;37.88;;;18.17;;
43710;SDS011;29309;42.682;23.372;2023-01-15T07:43:56;32.55;;;15.93;;
43710;SDS011;29309;42.682;23.372;2023-01-15T07:46:40;34.03;;;16.38;;
43710;SDS011;29309;42.682;23.372;2023-01-15T07:49:24;29.10;;;15.95;;
43710;SDS011;29309;42.682;23.372;2023-01-15T07:52:08;33.92;;;17.30;;
43710;SDS011;29309;42.682;23.372;2023-01-15T07:54:34;35.42;;;16.05;;
43710;SDS011;29309;42.682;23.372;2023-01-15T07:56:59;34.28;;;17.85;;
43710;SDS011;29309;42.682;23.372;2023-01-15T07:59:25;32.38;;;15.65;;
43710;SDS011;29309;42.682;23.372;2023-01-15T08:01:50;30.88;;;14.40;;
43710;SDS011;29309;42.682;23.372;2023-01-15T08:04:15;29.95;;;15.23;;
43710;SDS011;29309;42.682;23.372;2023-01-15T08:06:44;28.20;;;14.40;;
43710;SDS011;29309;42.682;23.372;2023-01-15T08:09:09;26.58;;;13.48;;
43710;SDS011;29309;42.682;23.372;2023-01-15T08:11:35;28.77;;;14.38;;
43710;SDS011;29309;42.682;23.372;2023-01-15T08:14:19;32.25;;;15.00;;
43710;SDS011;29309;42.682;23.372;2023-01-15T08:17:02;31.70;;;16.52;;
43710;SDS011;29309;42.682;23.372;2023-01-15T08:19:28;32.92;;;16.73;;
43710;SDS011;29309;42.682;23.372;2023-01-15T08:21:54;35.38;;;16.23;;
43710;SDS011;29309;42.682;23.372;2023-01-15T08:24:21;37.95;;;17.20;;
43710;SDS011;29309;42.682;23.372;2023-01-15T08:26:49;34.05;;;16.48;;
43710;SDS011;29309;42.682;23.372;2023-01-15T08:29:16;32.35;;;17.23;;
43710;SDS011;29309;42.682;23.372;2023-01-15T08:31:41;32.03;;;17.73;;
43710;SDS011;29309;42.682;23.372;2023-01-15T08:34:07;32.50;;;16.23;;
43710;SDS011;29309;42.682;23.372;2023-01-15T08:36:33;34.40;;;16.50;;
43710;SDS011;29309;42.682;23.372;2023-01-15T08:38:58;34.20;;;16.48;;
43710;SDS011;29309;42.682;23.372;2023-01-15T08:41:24;29.05;;;14.82;;
43710;SDS011;29309;42.682;23.372;2023-01-15T08:43:50;35.88;;;16.95;;
43710;SDS011;29309;42.682;23.372;2023-01-15T08:46:15;32.70;;;15.68;;
43710;SDS011;29309;42.682;23.372;2023-01-15T08:48:41;31.02;;;13.80;;
43710;SDS011;29309;42.682;23.372;2023-01-15T08:51:07;31.23;;;15.63;;
43710;SDS011;29309;42.682;23.372;2023-01-15T08:53:34;30.15;;;15.35;;
43710;SDS011;29309;42.682;23.372;2023-01-15T08:56:00;27.58;;;13.35;;
43710;SDS011;29309;42.682;23.372;2023-01-15T08:58:29;24.45;;;12.38;;
43710;SDS011;29309;42.682;23.372;2023-01-15T09:00:56;27.50;;;13.20;;
43710;SDS011;29309;42.682;23.372;2023-01-15T09:03:29;24.67;;;12.88;;
43710;SDS011;29309;42.682;23.372;2023-01-15T09:05:57;24.08;;;11.70;;
43710;SDS011;29309;42.682;23.372;2023-01-15T09:08:23;27.15;;;13.75;;
43710;SDS011;29309;42.682;23.372;2023-01-15T09:10:49;23.58;;;11.98;;
43710;SDS011;29309;42.682;23.372;2023-01-15T09:13:14;24.58;;;12.75;;
43710;SDS011;29309;42.682;23.372;2023-01-15T09:15:40;27.88;;;13.02;;
43710;SDS011;29309;42.682;23.372;2023-01-15T09:18:05;27.70;;;12.48;;
43710;SDS011;29309;42.682;23.372;2023-01-15T09:20:30;26.63;;;13.68;;
43710;SDS011;29309;42.682;23.372;2023-01-15T09:22:56;25.10;;;13.32;;
43710;SDS011;29309;42.682;23.372;2023-01-15T09:25:21;27.48;;;13.02;;
43710;SDS011;29309;42.682;23.372;2023-01-15T09:27:48;26.13;;;11.65;;
43710;SDS011;29309;42.682;23.372;2023-01-15T09:30:20;31.55;;;13.20;;
43710;SDS011;29309;42.682;23.372;2023-01-15T09:32:47;25.92;;;12.82;;
43710;SDS011;29309;42.682;23.372;2023-01-15T09:35:13;24.90;;;12.93;;
43710;SDS011;29309;42.682;23.372;2023-01-15T09:37:39;22.63;;;12.02;;
43710;SDS011;29309;42.682;23.372;2023-01-15T09:40:05;21.40;;;10.98;;
43710;SDS011;29309;42.682;23.372;2023-01-15T09:55:47;22.73;;;10.32;;
43710;SDS011;29309;42.682;23.372;2023-01-15T09:58:18;23.75;;;11.50;;
43710;SDS011;29309;42.682;23.372;2023-01-15T10:00:47;24.17;;;11.75;;
43710;SDS011;29309;42.682;23.372;2023-01-15T10:06:14;18.85;;;9.88;;
43710;SDS011;29309;42.682;23.372;2023-01-15T10:08:43;18.35;;;8.55;;
43710;SDS011;29309;42.682;23.372;2023-01-15T10:16:27;16.55;;;7.93;;
43710;SDS011;29309;42.682;23.372;2023-01-15T10:18:55;19.40;;;8.77;;
43710;SDS011;29309;42.682;23.372;2023-01-15T10:21:38;16.17;;;8.60;;
43710;SDS011;29309;42.682;23.372;2023-01-15T10:24:14;18.20;;;8.98;;
43710;SDS011;29309;42.682;23.372;2023-01-15T10:37:28;23.27;;;9.57;;
43710;SDS011;29309;42.682;23.372;2023-01-15T10:45:50;20.60;;;10.13;;
43710;SDS011;29309;42.682;23.372;2023-01-15T10:51:25;22.48;;;10.55;;
43710;SDS011;29309;42.682;23.372;2023-01-15T10:59:05;17.52;;;10.30;;
43710;SDS011;29309;42.682;23.372;2023-01-15T11:01:47;20.85;;;9.10;;
43710;SDS011;29309;42.682;23.372;2023-01-15T11:04:15;17.95;;;8.90;;
43710;SDS011;29309;42.682;23.372;2023-01-15T11:06:41;22.42;;;8.90;;
43710;SDS011;29309;42.682;23.372;2023-01-15T11:09:08;13.55;;;8.05;;
43710;SDS011;29309;42.682;23.372;2023-01-15T11:11:45;16.13;;;7.50;;
43710;SDS011;29309;42.682;23.372;2023-01-15T11:17:18;17.88;;;7.50;;
43710;SDS011;29309;42.682;23.372;2023-01-15T11:20:09;19.48;;;8.90;;
43710;SDS011;29309;42.682;23.372;2023-01-15T11:22:42;14.35;;;7.68;;
43710;SDS011;29309;42.682;23.372;2023-01-15T11:25:07;14.13;;;7.47;;
43710;SDS011;29309;42.682;23.372;2023-01-15T11:27:35;16.77;;;8.05;;
43710;SDS011;29309;42.682;23.372;2023-01-15T11:30:02;18.13;;;8.55;;
43710;SDS011;29309;42.682;23.372;2023-01-15T11:32:53;15.45;;;7.82;;
43710;SDS011;29309;42.682;23.372;2023-01-15T11:35:21;12.80;;;6.97;;
43710;SDS011;29309;42.682;23.372;2023-01-15T11:37:46;12.20;;;6.18;;
43710;SDS011;29309;42.682;23.372;2023-01-15T11:40:19;10.18;;;6.18;;
43710;SDS011;29309;42.682;23.372;2023-01-15T11:42:49;8.75;;;4.93;;
43710;SDS011;29309;42.682;23.372;2023-01-15T11:45:33;18.33;;;6.50;;
43710;SDS011;29309;42.682;23.372;2023-01-15T11:48:28;11.27;;;6.05;;
43710;SDS011;29309;42.682;23.372;2023-01-15T11:51:15;17.25;;;8.63;;
43710;SDS011;29309;42.682;23.372;2023-01-15T11:53:45;11.20;;;6.07;;
43710;SDS011;29309;42.682;23.372;2023-01-15T11:56:15;10.23;;;6.40;;
43710;SDS011;29309;42.682;23.372;2023-01-15T11:58:47;13.35;;;6.85;;
43710;SDS011;29309;42.682;23.372;2023-01-15T12:03:54;10.52;;;5.47;;
43710;SDS011;29309;42.682;23.372;2023-01-15T12:06:20;12.57;;;6.55;;
43710;SDS011;29309;42.682;23.372;2023-01-15T12:14:02;10.65;;;6.43;;
43710;SDS011;29309;42.682;23.372;2023-01-15T12:17:08;7.97;;;4.95;;
43710;SDS011;29309;42.682;23.372;2023-01-15T12:22:57;8.00;;;4.30;;
43710;SDS011;29309;42.682;23.372;2023-01-15T12:28:26;7.82;;;5.20;;
43710;SDS011;29309;42.682;23.372;2023-01-15T12:31:00;8.85;;;4.75;;
43710;SDS011;29309;42.682;23.372;2023-01-15T12:35:59;8.85;;;5.43;;
43710;SDS011;29309;42.682;23.372;2023-01-15T12:39:13;8.02;;;4.95;;
43710;SDS011;29309;42.682;23.372;2023-01-15T12:41:22;8.48;;;4.95;;
43710;SDS011;29309;42.682;23.372;2023-01-15T12:44:12;8.32;;;4.85;;
43710;SDS011;29309;42.682;23.372;2023-01-15T12:47:21;7.85;;;4.43;;
43710;SDS011;29309;42.682;23.372;2023-01-15T12:50:04;8.65;;;5.00;;
43710;SDS011;29309;42.682;23.372;2023-01-15T12:52:49;9.95;;;5.18;;
43710;SDS011;29309;42.682;23.372;2023-01-15T12:55:28;7.78;;;4.95;;
43710;SDS011;29309;42.682;23.372;2023-01-15T12:57:56;10.75;;;5.68;;
43710;SDS011;29309;42.682;23.372;2023-01-15T13:05:48;13.50;;;5.25;;
43710;SDS011;29309;42.682;23.372;2023-01-15T13:10:51;10.32;;;5.53;;
43710;SDS011;29309;42.682;23.372;2023-01-15T13:13:18;11.40;;;4.95;;
43710;SDS011;29309;42.682;23.372;2023-01-15T13:21:36;10.07;;;5.50;;
43710;SDS011;29309;42.682;23.372;2023-01-15T13:32:34;12.35;;;5.70;;
43710;SDS011;29309;42.682;23.372;2023-01-15T13:38:05;12.32;;;6.03;;
43710;SDS011;29309;42.682;23.372;2023-01-15T13:40:40;9.40;;;5.38;;
43710;SDS011;29309;42.682;23.372;2023-01-15T13:43:36;9.52;;;5.72;;
43710;SDS011;29309;42.682;23.372;2023-01-15T13:46:12;9.23;;;5.55;;
43710;SDS011;29309;42.682;23.372;2023-01-15T13:48:45;10.02;;;5.80;;
43710;SDS011;29309;42.682;23.372;2023-01-15T13:51:27;10.65;;;5.50;;
43710;SDS011;29309;42.682;23.372;2023-01-15T13:53:55;10.60;;;4.97;;
43710;SDS011;29309;42.682;23.372;2023-01-15T13:56:24;11.75;;;5.72;;
43710;SDS011;29309;42.682;23.372;2023-01-15T13:58:58;10.93;;;5.88;;
43710;SDS011;29309;42.682;23.372;2023-01-15T14:01:30;12.32;;;6.00;;
43710;SDS011;29309;42.682;23.372;2023-01-15T14:06:46;10.32;;;5.72;;
43710;SDS011;29309;42.682;23.372;2023-01-15T14:29:21;14.02;;;6.05;;
43710;SDS011;29309;42.682;23.372;2023-01-15T14:31:25;11.93;;;6.07;;
43710;SDS011;29309;42.682;23.372;2023-01-15T14:39:24;14.55;;;6.82;;
43710;SDS011;29309;42.682;23.372;2023-01-15T14:42:10;11.15;;;6.85;;
43710;SDS011;29309;42.682;23.372;2023-01-15T14:45:18;15.68;;;8.07;;
43710;SDS011;29309;42.682;23.372;2023-01-15T14:47:52;12.20;;;6.57;;
43710;SDS011;29309;42.682;23.372;2023-01-15T14:50:27;13.80;;;6.68;;
43710;SDS011;29309;42.682;23.372;2023-01-15T14:59:02;14.13;;;7.80;;
43710;SDS011;29309;42.682;23.372;2023-01-15T15:01:12;18.13;;;8.07;;
43710;SDS011;29309;42.682;23.372;2023-01-15T15:03:59;14.50;;;7.50;;
43710;SDS011;29309;42.682;23.372;2023-01-15T15:06:31;14.93;;;8.53;;
43710;SDS011;29309;42.682;23.372;2023-01-15T15:09:02;15.77;;;8.18;;
43710;SDS011;29309;42.682;23.372;2023-01-15T15:11:47;17.30;;;8.70;;
43710;SDS011;29309;42.682;23.372;2023-01-15T15:14:31;16.52;;;8.73;;
43710;SDS011;29309;42.682;23.372;2023-01-15T15:17:04;17.08;;;8.10;;
43710;SDS011;29309;42.682;23.372;2023-01-15T15:19:38;15.40;;;7.80;;
43710;SDS011;29309;42.682;23.372;2023-01-15T15:22:09;18.45;;;8.85;;
43710;SDS011;29309;42.682;23.372;2023-01-15T15:24:44;21.30;;;9.75;;
43710;SDS011;29309;42.682;23.372;2023-01-15T15:27:17;24.75;;;10.00;;
43710;SDS011;29309;42.682;23.372;2023-01-15T15:29:44;18.83;;;9.30;;
43710;SDS011;29309;42.682;23.372;2023-01-15T15:32:21;22.88;;;10.30;;
43710;SDS011;29309;42.682;23.372;2023-01-15T15:34:49;20.42;;;9.18;;
43710;SDS011;29309;42.682;23.372;2023-01-15T15:37:18;20.73;;;10.18;;
43710;SDS011;29309;42.682;23.372;2023-01-15T15:40:01;23.38;;;9.07;;
43710;SDS011;29309;42.682;23.372;2023-01-15T15:42:42;25.17;;;10.38;;
43710;SDS011;29309;42.682;23.372;2023-01-15T15:45:49;21.77;;;10.93;;
43710;SDS011;29309;42.682;23.372;2023-01-15T15:48:35;20.02;;;10.80;;
43710;SDS011;29309;42.682;23.372;2023-01-15T15:56:45;24.05;;;10.90;;
43710;SDS011;29309;42.682;23.372;2023-01-15T15:59:36;21.23;;;10.80;;
43710;SDS011;29309;42.682;23.372;2023-01-15T16:02:24;25.75;;;11.85;;
43710;SDS011;29309;42.682;23.372;2023-01-15T16:05:02;29.63;;;13.43;;
43710;SDS011;29309;42.682;23.372;2023-01-15T16:07:49;31.80;;;14.55;;
43710;SDS011;29309;42.682;23.372;2023-01-15T16:10:16;33.70;;;15.00;;
43710;SDS011;29309;42.682;23.372;2023-01-15T16:12:56;27.90;;;14.02;;
43710;SDS011;29309;42.682;23.372;2023-01-15T16:15:26;31.85;;;15.57;;
43710;SDS011;29309;42.682;23.372;2023-01-15T16:17:55;32.72;;;15.52;;
43710;SDS011;29309;42.682;23.372;2023-01-15T16:20:21;29.60;;;14.40;;
43710;SDS011;29309;42.682;23.372;2023-01-15T16:22:50;28.55;;;14.77;;
43710;SDS011;29309;42.682;23.372;2023-01-15T16:25:24;35.80;;;15.68;;
43710;SDS011;29309;42.682;23.372;2023-01-15T16:27:56;35.42;;;15.25;;
43710;SDS011;29309;42.682;23.372;2023-01-15T16:30:23;29.52;;;14.85;;
43710;SDS011;29309;42.682;23.372;2023-01-15T16:32:49;29.52;;;14.63;;
43710;SDS011;29309;42.682;23.372;2023-01-15T16:35:23;30.95;;;15.55;;
43710;SDS011;29309;42.682;23.372;2023-01-15T16:37:50;31.52;;;14.90;;
43710;SDS011;29309;42.682;23.372;2023-01-15T16:42:57;29.55;;;14.93;;
43710;SDS011;29309;42.682;23.372;2023-01-15T16:45:28;31.48;;;15.07;;
43710;SDS011;29309;42.682;23.372;2023-01-15T16:48:39;29.70;;;14.80;;
43710;SDS011;29309;42.682;23.372;2023-01-15T16:50:47;32.00;;;15.13;;
43710;SDS011;29309;42.682;23.372;2023-01-15T16:56:03;33.08;;;15.60;;
43710;SDS011;29309;42.682;23.372;2023-01-15T16:58:36;30.95;;;14.75;;
43710;SDS011;29309;42.682;23.372;2023-01-15T17:01:31;32.15;;;14.77;;
43710;SDS011;29309;42.682;23.372;2023-01-15T17:03:59;27.27;;;13.50;;
43710;SDS011;29309;42.682;23.372;2023-01-15T17:06:26;27.13;;;12.98;;
43710;SDS011;29309;42.682;23.372;2023-01-15T17:08:52;24.88;;;12.02;;
43710;SDS011;29309;42.682;23.372;2023-01-15T17:11:20;26.13;;;12.98;;
43710;SDS011;29309;42.682;23.372;2023-01-15T17:13:48;26.67;;;13.18;;
43710;SDS011;29309;42.682;23.372;2023-01-15T17:16:15;26.02;;;12.88;;
43710;SDS011;29309;42.682;23.372;2023-01-15T17:18:47;24.17;;;11.55;;
43710;SDS011;29309;42.682;23.372;2023-01-15T17:21:15;25.30;;;12.20;;
43710;SDS011;29309;42.682;23.372;2023-01-15T17:23:47;26.25;;;12.60;;
43710;SDS011;29309;42.682;23.372;2023-01-15T17:26:17;23.58;;;11.90;;
43710;SDS011;29309;42.682;23.372;2023-01-15T17:28:45;27.85;;;10.70;;
43710;SDS011;29309;42.682;23.372;2023-01-15T17:31:17;24.63;;;11.10;;